Time;durP1;ratioP1;P1;durP2;ratioP2;P2;SDS_P1;SDS_P2;PMS_P1;PMS_P2;Temp;Humidity;BMP_temperature;BMP_pressure;BME280_temperature;BME280_humidity;BME280_pressure;Samples;Min_cycle;Max_cycle;Signal;HPM_P1;HPM_P2
2022/02/12 00:00:50;;;;;;;21.50;6.72;;;;;;;-1.48;66.80;101714.28;10471719;28;20164;-72
2022/02/12 00:05:52;;;;;;;18.65;6.15;;;;;;;-1.43;66.75;101727.19;10482569;28;20044;-72
2022/02/12 00:10:53;;;;;;;20.65;6.68;;;;;;;-1.45;66.47;101716.88;10479001;28;20083;-72
2022/02/12 00:15:55;;;;;;;17.92;7.50;;;;;;;-1.45;66.41;101714.31;10470868;28;20050;-72
2022/02/12 00:20:57;;;;;;;20.67;7.40;;;;;;;-1.56;66.50;101713.28;10470592;28;20150;-71
2022/02/12 00:25:58;;;;;;;16.45;6.85;;;;;;;-1.54;66.55;101715.88;10451575;28;20056;-72
2022/02/12 00:31:00;;;;;;;21.92;6.97;;;;;;;-1.59;66.61;101707.22;10469454;28;20091;-72
2022/02/12 00:36:02;;;;;;;27.80;8.25;;;;;;;-1.59;66.49;101704.66;10469079;28;20059;-71
2022/02/12 00:41:04;;;;;;;21.27;7.20;;;;;;;-1.69;66.70;101705.31;10468903;28;20052;-71
2022/02/12 00:46:06;;;;;;;28.48;8.35;;;;;;;-1.80;66.82;101697.47;10468712;28;20087;-69
2022/02/12 00:51:07;;;;;;;20.73;7.00;;;;;;;-1.78;66.78;101690.66;10469342;28;20055;-71
2022/02/12 00:56:09;;;;;;;22.20;6.00;;;;;;;-1.74;66.74;101683.88;10468922;28;20047;-70
2022/02/12 01:01:11;;;;;;;16.45;6.25;;;;;;;-1.73;66.60;101688.16;10468717;28;20530;-71
2022/02/12 01:06:13;;;;;;;13.88;6.35;;;;;;;-1.76;66.75;101690.69;10468832;28;20059;-70
2022/02/12 01:11:14;;;;;;;20.77;6.25;;;;;;;-1.77;66.52;101687.25;10468438;28;20044;-71
2022/02/12 01:16:16;;;;;;;18.85;6.38;;;;;;;-1.88;66.48;101686.19;10468184;28;20076;-70
2022/02/12 01:21:19;;;;;;;25.42;7.15;;;;;;;-1.98;66.51;101680.00;10480174;28;20262;-70
2022/02/12 01:26:21;;;;;;;18.42;7.15;;;;;;;-2.02;66.43;101675.66;10467445;28;20175;-70
2022/02/12 01:31:23;;;;;;;30.83;7.90;;;;;;;-2.25;66.47;101674.38;10467237;28;20052;-70
2022/02/12 01:36:25;;;;;;;19.73;6.90;;;;;;;-2.36;66.81;101673.28;10467699;28;20492;-70
2022/02/12 01:41:27;;;;;;;24.60;7.13;;;;;;;-2.34;66.90;101679.31;10467701;28;20272;-70
2022/02/12 01:46:28;;;;;;;25.55;7.40;;;;;;;-2.34;66.98;101681.88;10466101;28;20556;-70
2022/02/12 01:51:31;;;;;;;23.80;7.20;;;;;;;-2.28;66.72;101687.13;10467455;28;20143;-71
2022/02/12 01:56:33;;;;;;;24.05;7.25;;;;;;;-2.47;66.72;101685.00;10467213;28;20048;-70
2022/02/12 02:01:35;;;;;;;18.75;6.40;;;;;;;-2.38;66.98;101668.97;10467287;28;20045;-70
2022/02/12 02:06:36;;;;;;;16.63;6.20;;;;;;;-2.32;67.04;101675.06;10489589;28;20131;-71
2022/02/12 02:11:38;;;;;;;24.58;7.97;;;;;;;-2.31;66.72;101666.56;10467509;28;20062;-71
2022/02/12 02:16:42;;;;;;;25.20;8.27;;;;;;;-2.41;66.84;101661.22;10466182;28;20500;-69
2022/02/12 02:21:45;;;;;;;51.67;14.80;;;;;;;-2.39;66.81;101663.00;10467431;28;20049;-70
2022/02/12 02:26:47;;;;;;;42.25;9.65;;;;;;;-2.38;67.01;101651.03;10466213;28;20513;-71
2022/02/12 02:31:49;;;;;;;22.15;8.88;;;;;;;-2.39;66.83;101660.44;10465824;28;20855;-70
2022/02/12 02:36:54;;;;;;;17.73;7.03;;;;;;;-2.39;67.16;101651.88;10465989;28;20136;-69
2022/02/12 02:41:56;;;;;;;22.75;7.53;;;;;;;-2.38;66.85;101639.09;10466355;28;20049;-70
2022/02/12 02:46:58;;;;;;;21.90;7.28;;;;;;;-2.46;66.19;101638.06;10466225;28;20110;-69
2022/02/12 02:57:20;;;;;;;18.23;6.15;;;;;;;-2.70;66.61;101640.13;10466190;28;20058;-69
2022/02/12 03:02:21;;;;;;;21.63;6.93;;;;;;;-2.69;66.85;101616.25;10475918;28;20492;-69
2022/02/12 03:07:23;;;;;;;17.38;7.50;;;;;;;-2.64;66.65;101618.91;10480839;28;20147;-70
2022/02/12 03:12:25;;;;;;;26.27;8.68;;;;;;;-2.62;66.96;101612.13;10480973;28;20048;-70
2022/02/12 03:17:27;;;;;;;22.65;8.52;;;;;;;-2.76;66.42;101609.28;10480409;28;20123;-69
2022/02/12 03:22:29;;;;;;;54.20;9.18;;;;;;;-2.91;66.57;101604.69;10479971;28;20127;-70
2022/02/12 03:27:35;;;;;;;83.18;9.82;;;;;;;-2.96;67.05;101605.44;10479124;28;20097;-70
2022/02/12 03:32:36;;;;;;;31.45;9.05;;;;;;;-2.99;66.96;101590.00;10488134;28;20143;-69
2022/02/12 03:37:38;;;;;;;25.00;8.93;;;;;;;-2.95;66.85;101592.66;10479683;28;20050;-69
2022/02/12 03:42:40;;;;;;;30.08;8.80;;;;;;;-3.06;66.73;101588.16;10478129;28;20057;-70
2022/02/12 03:47:42;;;;;;;31.65;12.52;;;;;;;-3.05;66.87;101589.88;10479483;28;20139;-70
2022/02/12 03:52:43;;;;;;;23.77;10.25;;;;;;;-2.99;66.63;101592.56;10494661;28;20128;-70
2022/02/12 03:57:47;;;;;;;24.83;8.43;;;;;;;-2.99;66.68;101587.44;10478648;28;20485;-69
2022/02/12 04:02:49;;;;;;;30.88;10.50;;;;;;;-2.93;66.67;101583.31;10479504;28;20048;-70
2022/02/12 04:07:51;;;;;;;44.53;11.30;;;;;;;-2.93;66.51;101579.91;10473184;28;20504;-70
2022/02/12 04:12:53;;;;;;;32.20;10.38;;;;;;;-2.99;66.49;101579.78;10495160;28;20054;-70
2022/02/12 04:17:57;;;;;;;25.20;10.45;;;;;;;-3.02;66.69;101580.56;10470476;28;20040;-69
2022/02/12 04:22:58;;;;;;;40.00;10.43;;;;;;;-3.09;66.54;101568.47;10479608;28;20507;-69
2022/02/12 04:28:05;;;;;;;30.23;9.35;;;;;;;-3.18;66.97;101558.03;10474994;28;20305;-70
2022/02/12 04:33:08;;;;;;;26.42;12.32;;;;;;;-3.23;66.84;101564.78;10471228;28;20140;-70
2022/02/12 04:38:10;;;;;;;33.85;14.63;;;;;;;-3.20;66.68;101559.69;10469805;28;20557;-69
2022/02/12 04:43:12;;;;;;;22.52;8.77;;;;;;;-3.17;66.57;101561.47;10470088;28;20050;-69
2022/02/12 04:48:14;;;;;;;16.63;8.07;;;;;;;-3.17;66.40;101558.91;10486893;28;20070;-69
2022/02/12 04:53:15;;;;;;;18.60;7.82;;;;;;;-3.19;66.50;101552.91;10469537;28;20123;-71
2022/02/12 04:58:17;;;;;;;23.92;8.93;;;;;;;-3.12;66.54;101542.81;10450921;28;20105;-70
2022/02/12 05:03:19;;;;;;;24.83;8.23;;;;;;;-3.16;66.27;101561.50;10469847;28;20137;-70
2022/02/12 05:08:20;;;;;;;22.90;8.80;;;;;;;-3.22;66.34;101553.69;10469047;28;20048;-69
2022/02/12 05:13:22;;;;;;;26.48;9.00;;;;;;;-3.21;66.44;101557.13;10469369;28;20155;-70
2022/02/12 05:18:24;;;;;;;32.00;9.93;;;;;;;-3.18;66.51;101546.97;10468875;28;20052;-69
2022/02/12 05:23:25;;;;;;;31.50;9.18;;;;;;;-3.16;66.40;101550.41;10467941;28;20040;-69
2022/02/12 05:28:27;;;;;;;26.92;10.25;;;;;;;-3.15;66.25;101541.91;10468656;28;20053;-68
2022/02/12 05:33:29;;;;;;;23.70;9.30;;;;;;;-3.07;66.17;101533.56;10467659;28;20055;-69
2022/02/12 05:38:31;;;;;;;34.33;9.90;;;;;;;-3.04;66.20;101536.16;10468145;28;20045;-69
2022/02/12 05:43:33;;;;;;;35.13;9.82;;;;;;;-3.06;66.23;101531.88;10477476;28;20143;-69
2022/02/12 05:48:35;;;;;;;133.70;13.88;;;;;;;-3.10;66.38;101524.97;10479749;28;20517;-69
2022/02/12 05:53:38;;;;;;;79.97;14.27;;;;;;;-3.02;66.34;101519.13;10468032;28;20546;-70
2022/02/12 05:58:42;;;;;;;27.73;11.20;;;;;;;-2.93;66.18;101523.59;10467951;28;20216;-69
2022/02/12 06:03:44;;;;;;;55.03;12.70;;;;;;;-2.90;66.03;101521.94;10468200;28;20136;-70
2022/02/12 06:08:47;;;;;;;142.75;16.98;;;;;;;-3.05;66.21;101513.97;10464769;28;20489;-70
2022/02/12 06:13:52;;;;;;;229.05;16.05;;;;;;;-3.11;66.54;101520.66;10465701;28;20647;-70
2022/02/12 06:18:53;;;;;;;86.47;15.15;;;;;;;-3.06;66.58;101504.56;10465724;28;20049;-70
2022/02/12 06:23:55;;;;;;;133.93;15.57;;;;;;;-3.03;66.71;101499.50;10465469;28;20045;-71
2022/02/12 06:28:57;;;;;;;263.75;22.77;;;;;;;-3.16;66.60;101502.66;10465619;28;20139;-71
2022/02/12 06:33:59;;;;;;;180.07;16.08;;;;;;;-3.04;66.84;101504.59;10469176;28;20402;-70
2022/02/12 06:39:00;;;;;;;157.77;13.50;;;;;;;-3.06;66.83;101511.41;10473479;28;20508;-70
2022/02/12 06:44:02;;;;;;;112.68;15.45;;;;;;;-2.99;66.89;101508.09;10484138;28;20464;-70
2022/02/12 06:49:04;;;;;;;138.88;15.20;;;;;;;-2.87;66.69;101508.34;10488164;28;20055;-69
2022/02/12 06:54:11;;;;;;;88.75;13.18;;;;;;;-2.85;66.48;101509.25;10474093;28;20052;-70
2022/02/12 06:59:13;;;;;;;337.42;21.65;;;;;;;-2.89;66.46;101508.31;10475597;28;20049;-70
2022/02/12 07:04:15;;;;;;;172.90;15.55;;;;;;;-2.95;66.75;101497.97;10474320;28;20059;-69
2022/02/12 07:09:16;;;;;;;182.35;16.15;;;;;;;-2.94;66.57;101494.56;10473753;28;20131;-71
2022/02/12 07:14:18;;;;;;;510.63;29.13;;;;;;;-2.95;66.88;101495.41;10475430;28;20389;-70
2022/02/12 07:19:20;;;;;;;518.17;22.88;;;;;;;-2.99;66.88;101503.00;10483916;28;20051;-70
2022/02/12 07:24:21;;;;;;;654.67;29.42;;;;;;;-2.90;66.60;101501.47;10473120;28;20139;-71
2022/02/12 07:29:23;;;;;;;205.18;15.57;;;;;;;-2.81;66.74;101495.66;10473224;28;20063;-70
2022/02/12 07:34:25;;;;;;;257.08;16.48;;;;;;;-2.68;66.42;101492.50;10471668;28;20493;-70
2022/02/12 07:39:27;;;;;;;576.67;27.83;;;;;;;-2.60;66.23;101490.97;10472490;28;20055;-70
2022/02/12 07:44:29;;;;;;;345.13;17.27;;;;;;;-2.62;66.08;101478.94;10479327;28;20054;-70
2022/02/12 07:49:31;;;;;;;99.72;13.90;;;;;;;-2.53;66.10;101487.66;10471486;28;20215;-70
2022/02/12 07:54:32;;;;;;;41.92;12.30;;;;;;;-2.29;65.97;101482.09;10472776;28;20052;-69
2022/02/12 07:59:34;;;;;;;40.95;11.90;;;;;;;-2.03;65.34;101491.09;10470819;28;20059;-70
2022/02/12 08:04:36;;;;;;;29.77;11.82;;;;;;;-2.00;65.43;101488.59;10472083;28;20168;-69
2022/02/12 08:09:38;;;;;;;21.83;10.73;;;;;;;-1.51;65.05;101490.16;10471882;28;20072;-71
2022/02/12 08:14:41;;;;;;;34.40;14.27;;;;;;;-1.52;64.37;101489.28;10471238;28;20086;-69
2022/02/12 08:19:48;;;;;;;53.90;18.58;;;;;;;-1.64;64.16;101484.00;10470685;28;20566;-70
2022/02/12 08:24:49;;;;;;;42.00;14.95;;;;;;;-1.64;64.50;101490.81;10484913;28;20044;-70
2022/02/12 08:29:51;;;;;;;25.67;12.45;;;;;;;-1.12;64.17;101490.66;10470646;28;20276;-70
2022/02/12 08:34:54;;;;;;;29.83;13.85;;;;;;;-0.83;63.78;101473.03;10470396;28;20527;-70
2022/02/12 08:39:55;;;;;;;34.63;12.98;;;;;;;-0.93;63.86;101468.63;10471053;28;20056;-70
2022/02/12 08:44:57;;;;;;;43.80;12.68;;;;;;;-0.91;63.92;101483.22;10470530;28;20048;-70
2022/02/12 08:49:59;;;;;;;29.88;13.35;;;;;;;-0.81;63.86;101473.91;10469667;28;20063;-71
2022/02/12 08:55:07;;;;;;;37.15;12.82;;;;;;;-0.85;63.57;101464.44;10469484;28;20045;-69
2022/02/12 09:00:11;;;;;;;24.45;12.45;;;;;;;-1.13;64.10;101463.28;10469481;28;20055;-70
2022/02/12 09:05:33;;;;;;;24.08;12.00;;;;;;;-0.84;63.89;101461.88;10469079;28;20048;-69
2022/02/12 09:10:34;;;;;;;22.05;10.60;;;;;;;-0.47;63.07;101447.69;10467904;28;20366;-70
2022/02/12 09:15:36;;;;;;;29.17;14.70;;;;;;;-0.50;63.13;101443.41;10468548;28;20514;-71
2022/02/12 09:20:38;;;;;;;25.65;12.57;;;;;;;-0.31;63.13;101442.72;10469408;28;20580;-71
2022/02/12 09:25:42;;;;;;;20.60;9.50;;;;;;;-0.16;63.04;101434.25;10469860;28;20058;-70
2022/02/12 09:30:44;;;;;;;24.75;12.27;;;;;;;-0.21;63.02;101435.94;10469724;28;20076;-71
2022/02/12 09:35:52;;;;;;;21.42;10.88;;;;;;;-0.58;63.84;101441.63;10469596;28;20044;-70
2022/02/12 09:40:55;;;;;;;21.52;10.98;;;;;;;-0.66;64.41;101423.56;10469607;28;20115;-70
2022/02/12 09:46:27;;;;;;;25.30;9.95;;;;;;;-0.34;63.19;101411.84;10469742;28;20072;-71
2022/02/12 09:51:31;;;;;;;22.15;9.52;;;;;;;-0.36;63.14;101415.25;10468726;28;20589;-71
2022/02/12 09:56:36;;;;;;;22.55;9.02;;;;;;;-0.16;62.84;101407.69;10468018;28;20044;-70
2022/02/12 10:01:40;;;;;;;22.20;8.43;;;;;;;-0.16;63.49;101399.97;10468568;28;20048;-71
2022/02/12 10:06:43;;;;;;;21.35;8.98;;;;;;;-0.12;63.47;101410.28;10450310;28;20517;-69
2022/02/12 10:11:48;;;;;;;20.13;8.70;;;;;;;0.14;63.15;101395.88;10492803;28;20570;-73
2022/02/12 10:16:56;;;;;;;20.13;8.93;;;;;;;0.31;62.83;101388.25;10478208;28;20098;-72
2022/02/12 10:22:06;;;;;;;20.38;9.07;;;;;;;0.50;62.43;101385.75;10476085;28;20052;-72
2022/02/12 10:27:08;;;;;;;21.40;8.57;;;;;;;0.63;62.46;101378.94;10508557;27;20049;-71
2022/02/12 10:32:09;;;;;;;19.55;8.63;;;;;;;0.77;62.37;101382.44;10475983;28;20113;-72
2022/02/12 10:37:14;;;;;;;22.10;8.43;;;;;;;1.01;62.13;101368.78;10474196;28;20504;-72
2022/02/12 10:42:17;;;;;;;19.40;8.30;;;;;;;1.10;61.93;101366.19;10478241;28;20052;-72
2022/02/12 10:47:20;;;;;;;21.90;8.77;;;;;;;1.34;61.46;101358.47;10481606;28;20106;-72
2022/02/12 10:52:22;;;;;;;22.00;9.20;;;;;;;1.54;61.37;101355.94;10484142;28;20056;-72
2022/02/12 10:57:29;;;;;;;18.23;7.85;;;;;;;1.81;60.90;101341.25;10473540;28;20099;-71
2022/02/12 11:02:31;;;;;;;20.98;8.05;;;;;;;1.88;60.26;101330.09;10474285;28;20477;-71
2022/02/12 11:07:33;;;;;;;19.52;8.30;;;;;;;2.03;60.16;101334.34;10470734;28;20246;-67
2022/02/12 11:12:37;;;;;;;21.63;8.82;;;;;;;2.31;60.05;101312.75;10480699;28;20537;-67
2022/02/12 11:17:41;;;;;;;22.48;8.75;;;;;;;2.37;60.07;101299.81;10480807;28;20052;-67
2022/02/12 11:22:45;;;;;;;16.85;8.23;;;;;;;2.23;60.23;101297.25;10476642;28;20929;-66
2022/02/12 11:28:03;;;;;;;20.40;7.15;;;;;;;2.27;59.82;101277.50;10487852;28;20094;-66
2022/02/12 11:33:19;;;;;;;19.20;7.07;;;;;;;2.59;58.96;101272.13;10465737;28;20067;-66
2022/02/12 11:38:33;;;;;;;18.58;7.13;;;;;;;2.56;59.05;101249.75;10469088;28;20444;-67
2022/02/12 11:43:35;;;;;;;20.23;8.48;;;;;;;2.56;59.66;101248.94;10483649;28;20045;-66
2022/02/12 11:49:31;;;;;;;17.00;7.45;;;;;;;2.72;57.99;101245.38;10470712;28;20523;-66
2022/02/12 11:54:45;;;;;;;19.80;8.52;;;;;;;2.98;59.09;101228.81;10468832;28;20167;-66
2022/02/12 11:59:46;;;;;;;16.30;7.22;;;;;;;3.07;58.99;101222.69;10469971;28;20141;-65
2022/02/12 12:05:23;;;;;;;14.75;7.93;;;;;;;3.25;58.21;101199.28;10473859;28;20050;-66
2022/02/12 12:10:27;;;;;;;20.58;7.82;;;;;;;3.51;58.68;101188.66;10468163;28;20052;-66
2022/02/12 12:15:28;;;;;;;15.93;8.00;;;;;;;3.84;57.98;101177.94;10468036;28;20437;-66
2022/02/12 12:20:35;;;;;;;18.75;7.22;;;;;;;4.05;57.30;101162.13;10471396;28;20048;-65
2022/02/12 12:26:10;;;;;;;17.48;6.00;;;;;;;4.36;57.32;101158.22;10472472;28;20041;-66
2022/02/12 12:31:16;;;;;;;11.88;4.97;;;;;;;4.62;57.11;101145.72;10446030;28;20572;-66
2022/02/12 12:36:18;;;;;;;13.07;4.50;;;;;;;4.91;56.23;101131.41;10466148;28;20045;-65
2022/02/12 12:41:32;;;;;;;11.93;3.33;;;;;;;4.98;54.06;101107.97;10476718;28;20051;-66
2022/02/12 12:46:36;;;;;;;10.57;3.70;;;;;;;5.06;53.65;101100.03;10467352;28;20507;-65
2022/02/12 12:51:49;;;;;;;11.85;3.60;;;;;;;5.27;52.14;101084.03;10465982;28;20063;-65
2022/02/12 12:56:51;;;;;;;12.02;2.70;;;;;;;5.50;52.21;101068.88;10471447;28;20049;-66
2022/02/12 13:02:04;;;;;;;11.18;2.80;;;;;;;5.73;48.74;101053.66;10466315;28;20132;-66
2022/02/12 13:07:06;;;;;;;7.88;2.20;;;;;;;5.80;50.60;101060.41;10466923;28;20230;-66
2022/02/12 13:12:28;;;;;;;5.05;2.00;;;;;;;5.77;47.09;101047.53;10467968;28;20054;-66
2022/02/12 13:17:41;;;;;;;7.68;2.95;;;;;;;5.75;48.97;101025.06;10468594;28;20037;-66
2022/02/12 13:22:53;;;;;;;7.10;2.63;;;;;;;5.73;47.79;101017.34;10482255;28;20048;-66
2022/02/12 13:27:57;;;;;;;7.07;2.20;;;;;;;5.81;48.82;101022.34;10469883;28;20481;-66
2022/02/12 13:33:00;;;;;;;8.45;2.80;;;;;;;5.86;48.21;101023.09;10468626;28;20067;-67
2022/02/12 13:38:03;;;;;;;6.82;2.78;;;;;;;5.95;47.59;101012.47;10467559;28;20052;-67
2022/02/12 13:43:06;;;;;;;8.07;2.50;;;;;;;6.03;47.33;100994.97;10468607;28;20066;-66
2022/02/12 13:48:10;;;;;;;8.18;2.70;;;;;;;5.89;46.76;100990.13;10469326;28;20143;-66
2022/02/12 13:53:21;;;;;;;8.88;2.58;;;;;;;5.92;45.83;100979.66;10469520;28;20135;-67
2022/02/12 13:58:24;;;;;;;7.13;2.53;;;;;;;5.96;47.19;100973.50;10474577;28;20098;-66
2022/02/12 14:03:40;;;;;;;8.57;2.58;;;;;;;6.11;46.75;100973.13;10489933;28;20033;-66
2022/02/12 14:08:43;;;;;;;5.95;2.20;;;;;;;6.11;46.52;100962.75;10467605;28;20058;-66
2022/02/12 14:13:45;;;;;;;6.45;2.45;;;;;;;6.17;46.34;100960.00;10467708;28;20048;-67
2022/02/12 14:18:47;;;;;;;5.78;2.30;;;;;;;6.27;45.35;100961.50;10468072;28;20045;-66
2022/02/12 14:23:50;;;;;;;9.57;2.25;;;;;;;6.22;45.32;100957.28;10479267;28;20056;-66
2022/02/12 14:28:52;;;;;;;4.95;2.03;;;;;;;5.95;44.69;100951.03;10466357;28;20056;-66
2022/02/12 14:33:54;;;;;;;4.43;1.98;;;;;;;5.85;45.25;100952.16;10466314;28;20055;-66
2022/02/12 14:38:56;;;;;;;5.75;2.30;;;;;;;5.83;45.51;100942.69;10470931;28;20048;-66
2022/02/12 14:43:58;;;;;;;9.93;2.90;;;;;;;5.83;45.70;100940.09;10467245;28;20053;-67
2022/02/12 14:48:59;;;;;;;7.88;2.70;;;;;;;5.94;45.58;100936.31;10467808;28;20129;-67
2022/02/12 14:54:01;;;;;;;7.30;2.60;;;;;;;5.82;45.70;100926.25;10468967;28;20048;-66
2022/02/12 14:59:05;;;;;;;9.30;2.97;;;;;;;5.65;45.84;100915.44;10475127;28;20503;-67
2022/02/12 15:04:07;;;;;;;7.40;2.75;;;;;;;5.69;45.91;100909.28;10473349;28;20120;-66
2022/02/12 15:09:09;;;;;;;7.13;2.67;;;;;;;5.50;45.90;100895.03;10473892;28;20049;-66
2022/02/12 15:14:11;;;;;;;7.95;2.60;;;;;;;5.39;46.09;100886.69;10471380;28;20051;-66
2022/02/12 15:19:13;;;;;;;7.63;2.75;;;;;;;5.30;46.48;100885.13;10472623;28;20571;-66
2022/02/12 15:24:15;;;;;;;5.18;2.30;;;;;;;5.43;46.17;100883.13;10473105;28;20044;-65
2022/02/12 15:29:17;;;;;;;8.13;2.45;;;;;;;5.51;45.70;100868.22;10472331;28;20500;-66
2022/02/12 15:34:18;;;;;;;5.70;2.17;;;;;;;5.57;46.10;100855.09;10472397;28;20048;-66
2022/02/12 15:39:20;;;;;;;6.63;2.30;;;;;;;5.63;46.06;100849.75;10472245;28;20047;-66
2022/02/12 15:44:23;;;;;;;8.18;2.40;;;;;;;5.65;46.10;100842.78;10471783;28;20052;-66
2022/02/12 15:49:28;;;;;;;11.25;3.63;;;;;;;5.60;46.62;100839.44;10472658;28;20075;-66
2022/02/12 15:54:30;;;;;;;7.50;2.95;;;;;;;5.47;46.83;100825.91;10472443;28;20047;-66
2022/02/12 15:59:33;;;;;;;9.70;2.90;;;;;;;5.32;47.42;100817.66;10471388;28;20059;-66
2022/02/12 16:04:34;;;;;;;8.48;3.17;;;;;;;5.20;47.68;100816.22;10471747;28;20135;-66
2022/02/12 16:09:36;;;;;;;7.88;2.58;;;;;;;5.02;47.89;100815.81;10470864;28;20481;-66
2022/02/12 16:14:39;;;;;;;9.32;2.88;;;;;;;4.92;48.28;100816.91;10470441;28;20380;-66
2022/02/12 16:19:42;;;;;;;7.68;2.80;;;;;;;4.72;48.91;100830.28;10471288;28;20044;-67
2022/02/12 16:24:45;;;;;;;9.43;3.10;;;;;;;4.54;49.46;100817.72;10467265;28;20485;-66
2022/02/12 16:30:07;;;;;;;12.32;4.63;;;;;;;4.18;50.17;100814.16;10466823;28;20194;-66
2022/02/12 16:35:09;;;;;;;12.77;5.10;;;;;;;3.80;50.91;100807.06;10466996;28;20916;-66
2022/02/12 16:40:11;;;;;;;11.02;4.22;;;;;;;3.59;50.80;100812.66;10467243;28;20132;-67
2022/02/12 16:45:13;;;;;;;14.75;4.00;;;;;;;3.31;51.73;100810.53;10467212;28;20048;-66
2022/02/12 16:50:15;;;;;;;8.95;3.00;;;;;;;3.00;52.16;100803.28;10468341;28;20412;-66
2022/02/12 16:55:17;;;;;;;7.97;2.80;;;;;;;2.79;52.99;100811.34;10460932;28;20486;-66
2022/02/12 17:00:18;;;;;;;12.90;4.50;;;;;;;2.60;53.53;100816.78;10455958;28;20131;-66
2022/02/12 17:05:23;;;;;;;11.15;6.20;;;;;;;2.41;53.97;100808.41;10468038;28;20438;-66
2022/02/12 17:10:25;;;;;;;14.55;7.25;;;;;;;2.24;54.34;100812.91;10465100;28;20056;-67
2022/02/12 17:15:27;;;;;;;21.38;11.60;;;;;;;2.05;54.89;100807.13;10480019;28;20079;-69
2022/02/12 17:20:29;;;;;;;17.25;9.55;;;;;;;1.88;55.56;100803.03;10464199;28;20102;-69
2022/02/12 17:25:31;;;;;;;14.88;7.32;;;;;;;1.72;55.68;100789.44;10467866;28;20129;-70
2022/02/12 17:30:32;;;;;;;15.18;5.38;;;;;;;1.68;55.52;100784.34;10466648;28;20063;-68
2022/02/12 17:35:35;;;;;;;13.35;6.28;;;;;;;1.61;55.58;100783.53;10468356;28;20139;-70
2022/02/12 17:40:36;;;;;;;12.63;5.20;;;;;;;1.43;56.49;100772.53;10467064;28;20363;-70
2022/02/12 17:45:38;;;;;;;17.67;8.93;;;;;;;1.26;56.80;100763.25;10467629;28;20500;-70
2022/02/12 17:50:40;;;;;;;14.18;7.80;;;;;;;1.14;57.56;100754.75;10467544;28;20313;-69
2022/02/12 17:55:42;;;;;;;14.55;8.02;;;;;;;1.02;58.10;100754.84;10467668;28;20048;-70
2022/02/12 18:00:43;;;;;;;22.75;12.60;;;;;;;0.86;58.07;100748.13;10465023;28;20147;-69
2022/02/12 18:05:45;;;;;;;17.35;8.55;;;;;;;0.79;58.23;100752.44;10468168;28;20081;-71
2022/02/12 18:10:47;;;;;;;10.50;5.70;;;;;;;0.74;58.71;100746.50;10466223;28;20424;-70
2022/02/12 18:15:49;;;;;;;16.27;7.13;;;;;;;0.62;58.78;100743.16;10465835;28;20052;-71
2022/02/12 18:20:52;;;;;;;13.65;6.28;;;;;;;0.43;59.11;100744.97;10463645;28;20493;-71
2022/02/12 18:25:55;;;;;;;9.68;4.30;;;;;;;0.34;59.34;100742.47;10464271;28;20056;-70
2022/02/12 18:30:58;;;;;;;8.45;4.53;;;;;;;0.28;59.97;100747.66;10471215;28;20235;-70
2022/02/12 18:36:01;;;;;;;16.73;7.95;;;;;;;0.16;60.02;100738.25;10474829;28;20048;-71
2022/02/12 18:41:05;;;;;;;16.30;8.45;;;;;;;0.10;60.48;100746.00;10474879;28;20060;-71
2022/02/12 18:46:08;;;;;;;12.70;5.90;;;;;;;0.04;60.50;100743.47;10474730;28;20488;-71
2022/02/12 18:51:10;;;;;;;14.18;5.68;;;;;;;-0.03;60.74;100733.22;10472425;28;20213;-70
2022/02/12 18:56:13;;;;;;;14.30;6.55;;;;;;;-0.07;60.97;100731.53;10473995;28;20053;-71
2022/02/12 19:01:16;;;;;;;12.95;5.95;;;;;;;-0.21;61.10;100726.44;10471892;28;20059;-71
2022/02/12 19:06:19;;;;;;;9.25;5.07;;;;;;;-0.21;61.27;100720.44;10472200;28;20600;-71
2022/02/12 19:11:22;;;;;;;15.32;6.75;;;;;;;-0.28;61.42;100716.16;10472341;28;20785;-71
2022/02/12 19:16:26;;;;;;;19.27;10.18;;;;;;;-0.41;61.75;100723.91;10472240;28;20329;-70
2022/02/12 19:21:29;;;;;;;15.63;7.53;;;;;;;-0.54;62.18;100724.81;10473348;28;20066;-70
2022/02/12 19:26:31;;;;;;;16.23;6.15;;;;;;;-0.59;62.58;100710.25;10472307;28;20730;-70
2022/02/12 19:31:34;;;;;;;9.57;5.65;;;;;;;-0.62;62.58;100706.00;10472698;28;20633;-71
2022/02/12 19:36:37;;;;;;;13.98;6.43;;;;;;;-0.66;62.53;100698.31;10472537;28;20056;-71
2022/02/12 19:41:44;;;;;;;19.13;9.77;;;;;;;-0.67;62.83;100694.88;10472999;28;20059;-71
2022/02/12 19:46:47;;;;;;;17.92;9.77;;;;;;;-0.69;62.80;100690.59;10473901;28;20132;-71
2022/02/12 19:51:49;;;;;;;17.60;7.32;;;;;;;-0.73;63.00;100688.88;10473494;28;20052;-71
2022/02/12 19:56:51;;;;;;;11.15;5.10;;;;;;;-0.78;63.07;100694.03;10474055;28;20508;-71
2022/02/12 20:01:53;;;;;;;13.98;5.40;;;;;;;-0.84;63.40;100695.78;10471532;28;20048;-71
2022/02/12 20:06:55;;;;;;;13.23;5.00;;;;;;;-0.88;63.51;100689.75;10473346;28;20131;-70
2022/02/12 20:11:58;;;;;;;18.13;7.68;;;;;;;-0.95;63.68;100685.50;10470893;28;20139;-69
2022/02/12 20:17:01;;;;;;;17.98;10.48;;;;;;;-0.93;63.88;100688.94;10471446;28;20845;-69
2022/02/12 20:22:04;;;;;;;16.80;10.68;;;;;;;-0.95;63.77;100680.38;10471150;28;20417;-69
2022/02/12 20:27:07;;;;;;;19.10;9.45;;;;;;;-1.01;63.95;100670.13;10470733;28;20151;-69
2022/02/12 20:32:09;;;;;;;18.23;9.25;;;;;;;-1.04;64.14;100671.84;10470121;28;20135;-69
2022/02/12 20:37:13;;;;;;;24.17;13.63;;;;;;;-1.06;64.11;100656.41;10470439;28;20052;-73
2022/02/12 20:42:15;;;;;;;22.90;10.15;;;;;;;-1.10;64.04;100656.44;10468281;28;20094;-70
2022/02/12 20:47:18;;;;;;;17.58;8.70;;;;;;;-1.19;64.35;100652.19;10471631;28;20163;-71
2022/02/12 20:52:22;;;;;;;17.55;9.05;;;;;;;-1.28;64.59;100641.91;10469936;28;20058;-70
2022/02/12 20:57:24;;;;;;;15.63;8.00;;;;;;;-1.39;64.55;100643.63;10470642;28;20110;-71
2022/02/12 21:02:27;;;;;;;17.20;7.60;;;;;;;-1.60;64.64;100638.50;10470432;28;20094;-70
2022/02/12 21:07:34;;;;;;;18.63;8.13;;;;;;;-1.58;65.17;100636.78;10470281;28;20268;-71
2022/02/12 21:12:37;;;;;;;15.57;7.22;;;;;;;-1.50;65.01;100624.81;10467275;28;20056;-71
2022/02/12 21:17:39;;;;;;;13.05;6.78;;;;;;;-1.49;64.90;100619.66;10467386;28;20131;-70
2022/02/12 21:22:40;;;;;;;16.85;9.00;;;;;;;-1.49;64.68;100606.84;10468032;28;20059;-70
2022/02/12 21:27:42;;;;;;;15.98;8.60;;;;;;;-1.50;65.06;100601.72;10468821;28;20132;-71
2022/02/12 21:32:44;;;;;;;13.02;7.95;;;;;;;-1.50;65.29;100612.00;10469218;28;20064;-70
2022/02/12 21:37:46;;;;;;;17.35;7.28;;;;;;;-1.53;65.26;100614.56;10466084;28;20052;-69
2022/02/12 21:42:47;;;;;;;15.70;7.82;;;;;;;-1.66;65.22;100608.56;10467613;28;20148;-69
2022/02/12 21:47:49;;;;;;;17.00;10.48;;;;;;;-1.75;65.44;100602.56;10466880;28;20548;-70
2022/02/12 21:52:51;;;;;;;23.20;12.63;;;;;;;-1.72;65.56;100597.47;10467305;28;20052;-69
2022/02/12 21:57:52;;;;;;;17.33;9.07;;;;;;;-1.71;65.44;100600.00;10466851;28;20045;-69
2022/02/12 22:02:54;;;;;;;14.85;7.80;;;;;;;-1.69;65.67;100589.75;10465374;28;20056;-69
2022/02/12 22:07:56;;;;;;;15.25;8.02;;;;;;;-1.71;65.70;100582.06;10469610;28;20230;-69
2022/02/12 22:12:57;;;;;;;13.02;8.02;;;;;;;-1.70;65.51;100586.34;10469790;28;20058;-70
2022/02/12 22:17:59;;;;;;;15.90;7.70;;;;;;;-1.82;65.38;100588.91;10465542;28;20767;-71
2022/02/12 22:23:01;;;;;;;16.02;8.18;;;;;;;-1.87;65.63;100594.88;10465379;28;20044;-70
2022/02/12 22:28:03;;;;;;;16.63;7.60;;;;;;;-1.86;65.47;100583.78;10465847;28;20045;-70
2022/02/12 22:33:05;;;;;;;15.98;9.35;;;;;;;-1.84;65.79;100574.38;10463638;28;20173;-69
2022/02/12 22:38:07;;;;;;;16.98;11.55;;;;;;;-1.87;65.81;100572.66;10466407;28;20045;-69
2022/02/12 22:43:09;;;;;;;19.63;10.93;;;;;;;-1.90;65.78;100582.06;10466455;28;20467;-71
2022/02/12 22:48:11;;;;;;;14.90;8.95;;;;;;;-1.90;65.80;100588.06;10465839;28;20051;-71
2022/02/12 22:53:13;;;;;;;19.05;11.55;;;;;;;-1.92;65.67;100574.38;10465286;28;20180;-72
2022/02/12 22:58:15;;;;;;;18.58;9.48;;;;;;;-2.04;65.94;100562.38;10466166;28;20155;-72
2022/02/12 23:03:17;;;;;;;18.65;8.80;;;;;;;-2.05;66.03;100557.28;10477497;28;20088;-71
2022/02/12 23:08:18;;;;;;;20.92;8.23;;;;;;;-2.13;66.02;100559.84;10468631;28;20485;-71